createdAt,value
2022-10-26T00:01:23.939Z,62.03
2022-10-26T00:03:26.092Z,62.13
2022-10-26T00:05:28.153Z,61.98
2022-10-26T00:07:30.712Z,62.22
2022-10-26T00:09:33.157Z,62.17
2022-10-26T00:11:35.256Z,61.99
2022-10-26T00:13:37.947Z,61.64
2022-10-26T00:15:42.231Z,61.59
2022-10-26T00:17:44.608Z,61.81
2022-10-26T00:19:46.835Z,61.88
2022-10-26T00:21:49.170Z,62.01
2022-10-26T00:23:53.896Z,62.17
2022-10-26T00:25:57.427Z,62.10
2022-10-26T00:27:59.824Z,62.12
2022-10-26T00:30:03.693Z,61.65
2022-10-26T00:32:06.873Z,61.84
2022-10-26T00:34:11.433Z,61.58
2022-10-26T00:40:00.323Z,61.61
2022-10-26T00:42:03.067Z,61.81
2022-10-26T00:44:42.679Z,61.82
2022-10-26T00:46:45.008Z,62.03
2022-10-26T00:48:51.506Z,61.80
2022-10-26T00:50:55.884Z,61.90
2022-10-26T00:52:59.881Z,61.95
2022-10-26T00:55:02.386Z,61.69
2022-10-26T00:57:04.703Z,61.37
2022-10-26T00:59:09.993Z,61.56
2022-10-26T01:01:12.171Z,61.73
2022-10-26T01:03:14.847Z,61.69
2022-10-26T01:05:18.196Z,61.40
2022-10-26T01:09:24.928Z,61.51
2022-10-26T01:11:26.928Z,61.51
2022-10-26T01:13:33.855Z,61.33
2022-10-26T01:15:50.593Z,61.04
2022-10-26T01:18:03.266Z,61.11
2022-10-26T01:20:24.029Z,61.26
2022-10-26T01:22:50.105Z,61.48
2022-10-26T01:25:18.448Z,61.14
2022-10-26T01:27:36.266Z,61.46
2022-10-26T01:30:15.602Z,60.81
2022-10-26T01:32:33.523Z,61.48
2022-10-26T01:34:44.884Z,60.97
2022-10-26T01:37:02.900Z,61.19
2022-10-26T01:47:05.516Z,61.27
2022-10-26T01:49:12.254Z,61.23
2022-10-26T01:51:15.648Z,61.22
2022-10-26T01:53:19.646Z,60.90
2022-10-26T01:55:49.096Z,60.92
2022-10-26T02:01:42.626Z,61.37
2022-10-26T02:04:04.536Z,61.32
2022-10-26T02:06:15.543Z,61.29
2022-10-26T02:08:30.674Z,62.03
2022-10-26T02:10:53.539Z,61.76
2022-10-26T02:13:13.494Z,61.44
2022-10-26T02:15:22.482Z,61.17
2022-10-26T02:17:59.821Z,61.53
2022-10-26T02:20:10.744Z,61.58
2022-10-26T02:22:21.784Z,61.43
2022-10-26T02:24:27.079Z,61.24
2022-10-26T02:26:33.346Z,61.60
2022-10-26T02:28:39.468Z,61.92
2022-10-26T02:30:43.662Z,61.39
2022-10-26T02:32:50.574Z,61.52
2022-10-26T02:34:55.271Z,61.36
2022-10-26T02:37:01.039Z,61.43
2022-10-26T02:39:06.331Z,61.50
2022-10-26T02:41:09.172Z,62.03
2022-10-26T02:43:22.355Z,62.00
2022-10-26T02:45:31.052Z,62.17
2022-10-26T02:47:34.024Z,62.03
2022-10-26T02:58:26.816Z,62.20
2022-10-26T03:00:30.413Z,62.00
2022-10-26T03:02:32.324Z,62.26
2022-10-26T03:04:35.461Z,62.64
2022-10-26T03:06:37.604Z,63.16
2022-10-26T03:08:39.714Z,62.67
2022-10-26T03:10:44.967Z,62.39
2022-10-26T03:12:47.508Z,62.27
2022-10-26T03:14:49.671Z,61.83
2022-10-26T03:18:58.796Z,62.40
2022-10-26T03:21:01.048Z,62.36
2022-10-26T03:23:03.113Z,62.61
2022-10-26T03:25:06.078Z,62.19
2022-10-26T03:27:11.361Z,62.34
2022-10-26T03:29:13.425Z,62.45
2022-10-26T03:31:18.649Z,62.33
2022-10-26T03:33:24.367Z,62.43
2022-10-26T03:35:29.188Z,62.16
2022-10-26T03:37:31.164Z,62.27
2022-10-26T03:39:33.257Z,62.10
2022-10-26T03:41:38.490Z,62.37
2022-10-26T03:43:40.499Z,62.06
2022-10-26T03:45:42.657Z,62.54
2022-10-26T03:47:49.364Z,62.02
2022-10-26T03:49:51.544Z,61.90
2022-10-26T03:51:53.727Z,61.79
2022-10-26T03:53:55.976Z,62.25
2022-10-26T03:55:58.039Z,62.03
2022-10-26T03:58:00.026Z,62.00
2022-10-26T04:00:02.182Z,62.03
2022-10-26T04:02:15.422Z,62.12
2022-10-26T04:04:17.487Z,62.20
2022-10-26T04:06:19.651Z,61.77
2022-10-26T04:08:21.710Z,61.76
2022-10-26T04:10:24.956Z,62.04
2022-10-26T04:12:27.054Z,62.09
2022-10-26T04:14:29.079Z,61.86
2022-10-26T04:16:33.420Z,61.94
2022-10-26T04:18:36.059Z,62.00
2022-10-26T04:20:39.272Z,61.96
2022-10-26T04:22:41.431Z,62.07
2022-10-26T04:24:43.515Z,62.18
2022-10-26T04:26:46.014Z,61.84
2022-10-26T04:28:48.196Z,61.73
2022-10-26T04:30:50.387Z,61.89
2022-10-26T04:32:52.563Z,61.99
2022-10-26T04:34:54.645Z,62.21
2022-10-26T04:36:56.858Z,62.38
2022-10-26T04:38:58.619Z,62.62
2022-10-26T04:41:00.574Z,62.74
2022-10-26T04:43:02.961Z,62.32
2022-10-26T04:45:06.595Z,62.51
2022-10-26T04:47:08.510Z,62.15
2022-10-26T04:49:10.647Z,62.48
2022-10-26T04:51:12.632Z,62.68
2022-10-26T04:53:15.571Z,62.58
2022-10-26T04:55:17.756Z,62.78
2022-10-26T04:57:22.875Z,63.52
2022-10-26T04:59:25.015Z,63.42
2022-10-26T05:01:27.945Z,63.64
2022-10-26T05:03:30.249Z,64.18
2022-10-26T05:05:39.121Z,64.49
2022-10-26T05:07:41.354Z,64.62
2022-10-26T05:09:43.588Z,65.06
2022-10-26T05:11:46.186Z,65.23
2022-10-26T05:13:49.373Z,65.77
2022-10-26T05:15:54.597Z,66.15
2022-10-26T05:18:03.019Z,65.93
2022-10-26T05:20:06.387Z,65.90
2022-10-26T05:22:08.652Z,65.78
2022-10-26T05:24:12.490Z,66.68
2022-10-26T05:26:14.758Z,66.75
2022-10-26T05:28:17.511Z,66.40
2022-10-26T05:30:19.549Z,66.67
2022-10-26T05:32:21.615Z,66.88
2022-10-26T05:34:23.579Z,66.50
2022-10-26T05:36:25.983Z,66.58
2022-10-26T05:38:27.859Z,67.03
2022-10-26T05:40:29.912Z,67.02
2022-10-26T05:42:31.628Z,67.38
2022-10-26T05:44:36.010Z,67.01
2022-10-26T05:46:38.067Z,66.69
2022-10-26T05:48:40.102Z,66.90
2022-10-26T05:50:42.077Z,66.89
2022-10-26T05:52:46.093Z,67.59
2022-10-26T05:54:48.107Z,68.03
2022-10-26T05:56:50.465Z,68.46
2022-10-26T05:58:52.940Z,68.22
2022-10-26T06:01:27.261Z,68.39
2022-10-26T06:03:42.249Z,68.55
2022-10-26T06:06:11.648Z,68.99
2022-10-26T06:08:13.890Z,68.33
2022-10-26T06:10:16.859Z,68.23
2022-10-26T06:12:19.867Z,67.93
2022-10-26T06:14:22.740Z,68.37
2022-10-26T06:16:35.169Z,68.74
2022-10-26T06:18:43.422Z,69.19
2022-10-26T06:21:00.111Z,69.37
2022-10-26T06:23:47.154Z,69.85
2022-10-26T06:25:55.546Z,68.98
2022-10-26T06:27:57.597Z,69.36
2022-10-26T06:30:07.183Z,69.91
2022-10-26T06:32:27.466Z,69.76
2022-10-26T06:34:34.676Z,70.44
2022-10-26T06:36:39.074Z,69.96
2022-10-26T06:38:44.690Z,70.09
2022-10-26T06:40:50.164Z,69.49
2022-10-26T06:42:52.477Z,69.28
2022-10-26T06:44:54.961Z,70.08
2022-10-26T06:47:06.410Z,70.54
2022-10-26T06:49:13.916Z,70.95
2022-10-26T06:51:17.427Z,70.50
2022-10-26T06:53:26.778Z,70.04
2022-10-26T06:55:36.303Z,70.25
2022-10-26T06:57:39.908Z,70.23
2022-10-26T06:59:52.217Z,69.95
2022-10-26T07:01:54.368Z,69.65
2022-10-26T07:03:56.727Z,69.91
2022-10-26T07:05:58.676Z,69.76
2022-10-26T07:08:00.787Z,69.76
2022-10-26T07:10:02.875Z,69.90
2022-10-26T07:12:05.105Z,69.90
2022-10-26T07:14:07.400Z,70.20
2022-10-26T07:16:09.196Z,70.22
2022-10-26T07:18:11.416Z,70.38
2022-10-26T07:20:14.727Z,70.23
2022-10-26T07:22:17.311Z,70.23
2022-10-26T07:24:19.437Z,70.09
2022-10-26T07:26:21.334Z,70.06
2022-10-26T07:28:23.332Z,70.08
2022-10-26T07:30:27.181Z,70.42
2022-10-26T07:32:29.806Z,70.39
2022-10-26T07:34:31.750Z,70.10
2022-10-26T07:36:36.974Z,70.14
2022-10-26T07:38:39.544Z,70.17
2022-10-26T07:40:41.670Z,69.86
2022-10-26T07:42:46.843Z,69.88
2022-10-26T07:44:50.039Z,69.78
2022-10-26T07:46:52.148Z,69.63
2022-10-26T07:48:54.281Z,69.65
2022-10-26T07:50:56.350Z,69.64
2022-10-26T07:53:00.032Z,69.86
2022-10-26T07:55:02.172Z,69.95
2022-10-26T07:59:07.684Z,70.30
2022-10-26T08:01:14.453Z,70.70
2022-10-26T08:03:17.776Z,70.29
2022-10-26T08:05:20.010Z,70.38
2022-10-26T08:07:22.285Z,70.20
2022-10-26T08:09:24.367Z,70.51
2022-10-26T08:11:27.060Z,70.40
2022-10-26T08:13:29.112Z,70.39
2022-10-26T08:15:31.278Z,70.31
2022-10-26T08:17:33.379Z,70.71
2022-10-26T08:20:16.451Z,70.79
2022-10-26T08:22:18.548Z,70.39
2022-10-26T08:24:20.378Z,70.39
2022-10-26T08:26:22.436Z,70.43
2022-10-26T08:28:24.437Z,70.41
2022-10-26T08:30:26.555Z,70.32
2022-10-26T08:32:28.577Z,69.88
2022-10-26T08:34:30.548Z,69.69
2022-10-26T08:36:32.586Z,69.50
2022-10-26T08:38:34.468Z,69.72
2022-10-26T08:40:39.495Z,69.92
2022-10-26T08:42:47.799Z,69.99
2022-10-26T08:44:58.393Z,70.02
2022-10-26T08:49:29.759Z,70.27
2022-10-26T08:51:37.690Z,69.30
2022-10-26T08:53:52.544Z,69.38
2022-10-26T08:56:01.979Z,69.47
2022-10-26T08:58:07.830Z,69.31
2022-10-26T09:00:18.387Z,70.11
2022-10-26T09:02:21.502Z,69.63
2022-10-26T09:04:29.919Z,68.94
2022-10-26T09:07:02.924Z,69.18
2022-10-26T09:09:21.716Z,68.12
2022-10-26T09:11:50.328Z,68.22
2022-10-26T09:14:04.795Z,68.19
2022-10-26T09:16:30.873Z,67.94
2022-10-26T09:18:56.722Z,67.83
2022-10-26T09:21:19.912Z,66.71
2022-10-26T09:26:43.156Z,66.95
2022-10-26T09:28:48.234Z,67.21
2022-10-26T09:31:53.326Z,66.82
2022-10-26T09:33:56.994Z,66.79
2022-10-26T09:36:03.541Z,66.74
2022-10-26T09:38:22.592Z,66.64
2022-10-26T09:40:29.596Z,66.61
2022-10-26T09:42:47.629Z,66.07
2022-10-26T09:45:03.891Z,66.24
2022-10-26T09:47:24.079Z,66.31
2022-10-26T09:49:41.423Z,65.16
2022-10-26T09:51:45.262Z,65.02
2022-10-26T09:53:48.590Z,65.39
2022-10-26T09:56:15.353Z,65.16
2022-10-26T09:58:46.596Z,65.64
2022-10-26T10:00:48.923Z,65.74
2022-10-26T10:02:53.898Z,64.93
2022-10-26T10:04:56.173Z,64.65
2022-10-26T10:07:18.696Z,63.57
2022-10-26T10:09:24.923Z,64.12
2022-10-26T10:11:44.945Z,62.70
2022-10-26T10:13:47.176Z,64.07
2022-10-26T10:16:01.910Z,63.27
2022-10-26T10:18:04.032Z,63.66
2022-10-26T10:25:01.594Z,62.01
2022-10-26T10:27:15.727Z,62.98
2022-10-26T10:29:18.306Z,63.50
2022-10-26T10:31:26.100Z,63.39
2022-10-26T10:33:35.360Z,62.22
2022-10-26T10:35:48.127Z,62.77
2022-10-26T10:37:51.866Z,62.09
2022-10-26T10:40:03.448Z,61.28
2022-10-26T10:42:14.145Z,62.87
2022-10-26T10:44:21.343Z,62.68
2022-10-26T10:46:27.028Z,62.08
2022-10-26T10:48:29.684Z,62.02
2022-10-26T10:50:34.279Z,61.56
2022-10-26T10:52:36.442Z,61.83
2022-10-26T10:54:40.008Z,61.82
2022-10-26T10:56:44.680Z,61.33
2022-10-26T10:59:08.851Z,60.07
2022-10-26T11:01:18.925Z,60.47
2022-10-26T11:03:41.217Z,60.63
2022-10-26T11:06:17.846Z,60.34
2022-10-26T11:08:43.247Z,60.01
2022-10-26T11:11:12.384Z,59.58
2022-10-26T11:13:24.551Z,59.21
2022-10-26T11:15:30.690Z,59.83
2022-10-26T11:17:58.174Z,59.75
2022-10-26T11:20:04.762Z,60.28
2022-10-26T11:22:17.533Z,60.04
2022-10-26T11:24:39.667Z,59.20
2022-10-26T11:27:02.489Z,58.89
2022-10-26T11:29:27.326Z,58.88
2022-10-26T11:31:39.440Z,58.75
2022-10-26T11:33:46.234Z,58.93
2022-10-26T11:36:16.114Z,58.75
2022-10-26T11:38:45.363Z,58.25
2022-10-26T11:40:58.890Z,59.10
2022-10-26T11:43:16.373Z,58.50
2022-10-26T11:45:26.773Z,57.44
2022-10-26T11:47:41.043Z,57.24
2022-10-26T11:49:52.131Z,57.48
2022-10-26T11:52:14.701Z,57.32
2022-10-26T11:54:45.937Z,57.69
2022-10-26T11:56:52.148Z,57.55
2022-10-26T11:58:56.048Z,57.78
2022-10-26T12:01:05.160Z,57.53
2022-10-26T12:03:15.476Z,56.58
2022-10-26T12:05:27.860Z,56.93
2022-10-26T12:07:33.400Z,57.20
2022-10-26T12:09:39.178Z,57.23
2022-10-26T12:11:53.163Z,56.87
2022-10-26T12:14:00.125Z,56.22
2022-10-26T12:16:33.688Z,56.72
2022-10-26T12:18:56.344Z,56.82
2022-10-26T12:21:29.010Z,55.23
2022-10-26T12:23:41.040Z,56.23
2022-10-26T12:25:50.070Z,55.16
2022-10-26T12:27:55.108Z,55.85
2022-10-26T12:30:20.147Z,56.11
2022-10-26T12:32:45.157Z,55.40
2022-10-26T12:34:47.453Z,56.29
2022-10-26T12:37:11.238Z,55.36
2022-10-26T12:39:31.679Z,55.06
2022-10-26T12:41:39.308Z,54.61
2022-10-26T12:43:42.091Z,55.79
2022-10-26T12:45:46.494Z,55.05
2022-10-26T12:47:48.906Z,55.67
2022-10-26T12:50:00.310Z,53.68
2022-10-26T12:54:32.649Z,51.92
2022-10-26T12:56:37.803Z,52.83
2022-10-26T12:59:04.838Z,52.95
2022-10-26T13:01:07.418Z,53.99
2022-10-26T13:03:36.048Z,52.50
2022-10-26T13:05:41.228Z,53.18
2022-10-26T13:07:43.554Z,54.10
2022-10-26T13:09:54.859Z,53.37
2022-10-26T13:11:58.258Z,53.92
2022-10-26T13:14:06.981Z,52.93
2022-10-26T13:16:12.610Z,52.32
2022-10-26T13:18:19.956Z,52.71
2022-10-26T13:20:22.439Z,53.71
2022-10-26T13:22:25.219Z,54.21
2022-10-26T13:24:32.760Z,53.82
2022-10-26T13:27:17.962Z,53.46
2022-10-26T13:29:30.879Z,53.54
2022-10-26T13:31:33.067Z,54.01
2022-10-26T13:33:42.036Z,53.33
2022-10-26T13:35:44.972Z,53.61
2022-10-26T13:37:50.761Z,54.04
2022-10-26T13:39:56.224Z,53.42
2022-10-26T13:41:59.979Z,53.17
2022-10-26T13:44:06.778Z,52.45
2022-10-26T13:46:25.285Z,52.66
2022-10-26T13:48:41.438Z,52.44
2022-10-26T13:50:55.415Z,51.60
2022-10-26T13:53:15.079Z,52.83
2022-10-26T13:55:53.541Z,51.99
2022-10-26T13:58:17.239Z,52.86
2022-10-26T14:00:23.834Z,52.74
2022-10-26T14:02:28.087Z,53.19
2022-10-26T14:04:30.333Z,53.86
2022-10-26T14:06:36.011Z,53.22
2022-10-26T14:08:41.383Z,53.41
2022-10-26T14:10:48.883Z,53.30
2022-10-26T14:12:52.140Z,53.78
2022-10-26T14:15:09.346Z,53.62
2022-10-26T14:17:20.479Z,54.31
2022-10-26T14:19:28.682Z,54.25
2022-10-26T14:21:30.764Z,54.56
2022-10-26T14:23:45.332Z,54.71
2022-10-26T14:25:58.650Z,55.14
2022-10-26T14:28:07.708Z,55.11
2022-10-26T14:30:26.315Z,55.35
2022-10-26T14:32:33.616Z,54.83
2022-10-26T14:34:35.724Z,55.07
2022-10-26T14:37:00.722Z,55.40
2022-10-26T14:39:07.823Z,55.86
2022-10-26T14:41:10.703Z,55.76
2022-10-26T14:43:21.285Z,56.17
2022-10-26T14:45:48.913Z,56.95
2022-10-26T14:47:52.104Z,56.18
2022-10-26T14:49:54.684Z,56.31
2022-10-26T14:52:04.791Z,56.26
2022-10-26T14:54:21.050Z,56.89
2022-10-26T14:56:48.986Z,55.44
2022-10-26T14:58:51.827Z,56.19
2022-10-26T15:01:21.877Z,55.91
2022-10-26T15:03:24.496Z,55.86
2022-10-26T15:05:35.755Z,55.26
2022-10-26T15:07:40.091Z,56.22
2022-10-26T15:09:46.041Z,56.33
2022-10-26T15:11:48.183Z,56.16
2022-10-26T15:13:50.476Z,55.36
2022-10-26T15:15:58.067Z,56.13
2022-10-26T15:18:01.247Z,56.17
2022-10-26T15:20:07.033Z,55.76
2022-10-26T15:22:25.354Z,55.93
2022-10-26T15:24:38.537Z,56.38
2022-10-26T15:26:44.408Z,56.10
2022-10-26T15:28:49.858Z,56.54
2022-10-26T15:31:11.980Z,57.15
2022-10-26T15:33:24.395Z,55.42
2022-10-26T15:35:31.729Z,56.72
2022-10-26T15:37:33.679Z,56.62
2022-10-26T15:39:35.626Z,56.38
2022-10-26T15:41:45.437Z,56.68
2022-10-26T15:43:49.154Z,56.01
2022-10-26T15:45:56.458Z,55.93
2022-10-26T15:48:00.952Z,55.88
2022-10-26T15:50:03.066Z,55.13
2022-10-26T15:52:09.581Z,56.56
2022-10-26T15:54:11.785Z,55.66
2022-10-26T15:56:23.588Z,55.26
2022-10-26T15:58:31.633Z,55.38
2022-10-26T16:00:33.576Z,55.43
2022-10-26T16:02:38.852Z,55.23
2022-10-26T16:04:41.282Z,55.58
2022-10-26T16:06:43.425Z,55.45
2022-10-26T16:08:50.848Z,56.06
2022-10-26T16:10:52.744Z,55.78
2022-10-26T16:12:54.914Z,55.52
2022-10-26T16:15:05.499Z,55.58
2022-10-26T16:17:08.262Z,56.15
2022-10-26T16:19:30.493Z,56.32
2022-10-26T16:25:23.593Z,56.40
2022-10-26T16:27:26.450Z,56.40
2022-10-26T16:29:28.304Z,55.98
2022-10-26T16:31:30.170Z,56.01
2022-10-26T16:33:32.204Z,56.36
2022-10-26T16:35:34.293Z,56.24
2022-10-26T16:37:36.145Z,55.94
2022-10-26T16:39:38.231Z,55.76
2022-10-26T16:41:40.159Z,55.68
2022-10-26T16:43:44.800Z,55.69
2022-10-26T16:45:46.915Z,56.16
2022-10-26T16:47:49.391Z,56.02
2022-10-26T16:50:16.842Z,56.47
2022-10-26T16:52:19.041Z,56.55
2022-10-26T16:54:21.247Z,56.96
2022-10-26T16:56:26.501Z,57.04
2022-10-26T16:58:28.508Z,56.61
2022-10-26T17:00:30.665Z,56.80
2022-10-26T17:02:32.837Z,56.55
2022-10-26T17:04:34.864Z,56.54
2022-10-26T17:06:36.858Z,56.88
2022-10-26T17:08:39.403Z,56.52
2022-10-26T17:10:41.715Z,56.25
2022-10-26T17:12:43.673Z,56.55
2022-10-26T17:14:45.585Z,56.70
2022-10-26T17:16:47.583Z,56.57
2022-10-26T17:18:51.280Z,56.68
2022-10-26T17:20:53.273Z,56.94
2022-10-26T17:22:55.553Z,56.89
2022-10-26T17:24:57.586Z,56.61
2022-10-26T17:34:55.271Z,57.17
2022-10-26T17:36:57.380Z,57.05
2022-10-26T17:39:01.157Z,57.07
2022-10-26T17:41:06.347Z,56.95
2022-10-26T17:43:08.384Z,56.65
2022-10-26T17:45:11.196Z,56.96
2022-10-26T17:47:15.652Z,56.97
2022-10-26T17:49:17.806Z,57.12
2022-10-26T17:52:28.882Z,57.49
2022-10-26T17:54:31.284Z,57.23
2022-10-26T17:56:34.458Z,57.19
2022-10-26T17:58:37.143Z,56.93
2022-10-26T18:00:40.421Z,57.20
2022-10-26T18:02:42.690Z,57.07
2022-10-26T18:05:47.633Z,57.29
2022-10-26T18:07:50.081Z,57.12
2022-10-26T18:09:52.828Z,57.48
2022-10-26T18:11:55.962Z,57.63
2022-10-26T18:13:58.464Z,57.89
2022-10-26T18:16:05.097Z,58.25
2022-10-26T18:18:07.218Z,57.89
2022-10-26T18:20:09.631Z,58.20
2022-10-26T18:22:11.902Z,58.25
2022-10-26T18:24:13.903Z,58.00
2022-10-26T18:26:18.362Z,57.98
2022-10-26T18:28:20.509Z,57.69
2022-10-26T18:30:23.057Z,57.56
2022-10-26T18:32:25.160Z,57.63
2022-10-26T18:34:27.255Z,57.74
2022-10-26T18:36:29.999Z,57.50
2022-10-26T18:38:33.122Z,57.93
2022-10-26T18:40:35.134Z,57.49
2022-10-26T18:42:37.524Z,57.19
2022-10-26T18:44:39.578Z,57.35
2022-10-26T18:46:42.784Z,57.66
2022-10-26T18:48:45.080Z,57.31
2022-10-26T18:50:47.247Z,57.75
2022-10-26T18:52:49.564Z,57.75
2022-10-26T18:54:51.956Z,57.74
2022-10-26T18:56:57.027Z,57.72
2022-10-26T18:59:00.725Z,57.52
2022-10-26T19:01:13.547Z,57.83
2022-10-26T19:03:15.582Z,57.61
2022-10-26T19:05:17.788Z,57.63
2022-10-26T19:07:19.860Z,57.46
2022-10-26T19:09:22.252Z,57.74
2022-10-26T19:11:25.966Z,57.73
2022-10-26T19:13:28.152Z,57.83
2022-10-26T19:15:30.316Z,58.11
2022-10-26T19:17:32.762Z,58.55
2022-10-26T19:19:35.044Z,58.34
2022-10-26T19:21:40.205Z,58.83
2022-10-26T19:23:45.289Z,59.17
2022-10-26T19:25:53.985Z,58.79
2022-10-26T19:27:56.139Z,58.64
2022-10-26T19:29:59.169Z,58.95
2022-10-26T19:32:03.047Z,58.31
2022-10-26T19:34:06.181Z,58.34
2022-10-26T19:36:11.746Z,58.86
2022-10-26T19:38:13.872Z,58.73
2022-10-26T19:40:15.853Z,59.90
2022-10-26T19:42:17.713Z,59.60
2022-10-26T19:44:22.030Z,60.03
2022-10-26T19:46:29.374Z,60.23
2022-10-26T19:48:58.913Z,60.65
2022-10-26T19:51:01.093Z,59.84
2022-10-26T19:53:03.602Z,59.57
2022-10-26T19:55:06.132Z,59.71
2022-10-26T19:57:08.095Z,59.32
2022-10-26T19:59:11.244Z,59.25
2022-10-26T20:01:15.492Z,59.39
2022-10-26T20:03:17.873Z,59.06
2022-10-26T20:05:19.565Z,59.23
2022-10-26T20:07:22.944Z,59.11
2022-10-26T20:09:25.585Z,58.82
2022-10-26T20:11:28.185Z,58.60
2022-10-26T20:13:30.288Z,58.72
2022-10-26T20:15:32.830Z,58.68
2022-10-26T20:17:35.838Z,58.83
2022-10-26T20:19:38.722Z,58.64
2022-10-26T20:21:40.788Z,58.76
2022-10-26T20:23:43.528Z,58.91
2022-10-26T20:25:51.152Z,59.13
2022-10-26T20:27:53.459Z,58.89
2022-10-26T20:29:55.531Z,59.31
2022-10-26T20:31:59.913Z,59.41
2022-10-26T20:34:02.485Z,59.63
2022-10-26T20:36:04.558Z,59.46
2022-10-26T20:38:13.361Z,59.54
2022-10-26T20:40:16.286Z,59.80
2022-10-26T20:42:27.398Z,60.29
2022-10-26T20:44:36.087Z,60.30
2022-10-26T20:46:38.596Z,59.87
2022-10-26T20:48:40.879Z,59.98
2022-10-26T20:50:48.724Z,60.04
2022-10-26T20:52:53.647Z,60.65
2022-10-26T20:55:11.171Z,60.94
2022-10-26T20:57:39.395Z,60.88
2022-10-26T20:59:48.836Z,60.72
2022-10-26T21:01:50.842Z,60.18
2022-10-26T21:03:56.522Z,60.55
2022-10-26T21:05:58.676Z,60.35
2022-10-26T21:08:00.806Z,60.67
2022-10-26T21:10:03.185Z,60.52
2022-10-26T21:12:05.331Z,60.54
2022-10-26T21:14:08.446Z,60.68
2022-10-26T21:16:10.332Z,60.81
2022-10-26T21:18:13.023Z,60.55
2022-10-26T21:20:15.126Z,60.58
2022-10-26T21:22:17.230Z,60.58
2022-10-26T21:24:19.219Z,60.70
2022-10-26T21:26:21.332Z,60.77
2022-10-26T21:28:23.738Z,60.63
2022-10-26T21:30:26.557Z,60.90
2022-10-26T21:32:28.778Z,60.69
2022-10-26T21:34:30.759Z,60.77
2022-10-26T21:36:32.983Z,60.83
2022-10-26T21:38:35.522Z,60.84
2022-10-26T21:40:37.592Z,60.86
2022-10-26T21:42:42.151Z,60.81
2022-10-26T21:44:46.757Z,60.74
2022-10-26T21:46:48.880Z,60.58
2022-10-26T21:48:52.536Z,60.94
2022-10-26T21:50:54.864Z,61.07
2022-10-26T21:52:57.077Z,61.16
2022-10-26T21:54:59.227Z,60.89
2022-10-26T21:57:01.413Z,61.00
2022-10-26T21:59:05.979Z,61.08
2022-10-26T22:01:11.321Z,61.47
2022-10-26T22:03:13.912Z,61.79
2022-10-26T22:05:16.182Z,61.81
2022-10-26T22:07:20.262Z,61.63
2022-10-26T22:09:25.209Z,61.79
2022-10-26T22:11:29.290Z,61.54
2022-10-26T22:13:31.723Z,61.95
2022-10-26T22:15:34.030Z,61.90
2022-10-26T22:17:40.344Z,62.91
2022-10-26T22:19:45.079Z,62.47
2022-10-26T22:21:47.377Z,62.57
2022-10-26T22:23:49.610Z,62.79
2022-10-26T22:25:51.858Z,63.11
2022-10-26T22:27:54.195Z,63.41
2022-10-26T22:30:30.426Z,64.40
2022-10-26T22:32:32.662Z,63.32
2022-10-26T22:34:34.786Z,63.30
2022-10-26T22:36:36.760Z,63.11
2022-10-26T22:38:39.306Z,62.71
2022-10-26T22:40:41.249Z,62.84
2022-10-26T22:42:43.785Z,63.06
2022-10-26T22:44:46.027Z,62.55
2022-10-26T22:46:51.225Z,62.49
2022-10-26T22:48:54.952Z,62.87
2022-10-26T22:51:05.526Z,62.91
2022-10-26T22:53:07.699Z,62.73
2022-10-26T22:55:09.793Z,62.52
2022-10-26T22:57:11.852Z,62.58
2022-10-26T22:59:14.046Z,62.78
2022-10-26T23:01:20.344Z,62.64
2022-10-26T23:03:22.322Z,62.79
2022-10-26T23:05:24.530Z,63.22
2022-10-26T23:07:26.596Z,62.89
2022-10-26T23:09:28.536Z,63.06
2022-10-26T23:11:30.698Z,62.87
2022-10-26T23:13:32.781Z,63.00
2022-10-26T23:15:34.883Z,63.07
2022-10-26T23:17:37.053Z,62.87
2022-10-26T23:19:39.216Z,63.11
2022-10-26T23:21:41.260Z,63.18
2022-10-26T23:23:44.150Z,63.57
2022-10-26T23:25:46.203Z,63.87
2022-10-26T23:27:48.386Z,63.66
2022-10-26T23:29:50.605Z,63.80
2022-10-26T23:31:52.676Z,63.87
2022-10-26T23:33:56.629Z,63.67
2022-10-26T23:35:59.322Z,63.61
2022-10-26T23:38:01.376Z,63.51
2022-10-26T23:40:03.887Z,64.18
2022-10-26T23:42:06.009Z,64.32
2022-10-26T23:44:07.883Z,64.10
2022-10-26T23:46:09.872Z,64.38
2022-10-26T23:48:12.012Z,64.19
2022-10-26T23:50:14.505Z,64.66
2022-10-26T23:52:16.745Z,64.63
2022-10-26T23:54:18.796Z,64.43
2022-10-26T23:56:20.958Z,63.94
2022-10-26T23:58:23.247Z,64.43
